createdAt,value
2023-01-02T00:01:59.899Z,12.58
2023-01-02T00:06:05.536Z,12.55
2023-01-02T00:10:07.320Z,12.54
2023-01-02T00:14:08.860Z,12.52
2023-01-02T00:18:10.534Z,12.52
2023-01-02T00:22:12.061Z,12.51
2023-01-02T00:26:13.605Z,12.49
2023-01-02T00:30:15.218Z,12.55
2023-01-02T00:34:16.743Z,12.59
2023-01-02T00:38:18.545Z,12.62
2023-01-02T00:42:20.129Z,12.62
2023-01-02T00:46:21.964Z,12.63
2023-01-02T00:50:23.484Z,12.67
2023-01-02T00:54:25.054Z,12.67
2023-01-02T00:58:26.607Z,12.67
2023-01-02T01:02:28.337Z,12.63
2023-01-02T01:06:30.032Z,12.62
2023-01-02T01:10:31.588Z,12.61
2023-01-02T01:14:33.140Z,12.61
2023-01-02T01:18:35.184Z,12.58
2023-01-02T01:22:36.773Z,12.54
2023-01-02T01:26:38.391Z,12.54
2023-01-02T01:30:39.911Z,12.49
2023-01-02T01:34:41.678Z,12.46
2023-01-02T01:38:43.941Z,12.43
2023-01-02T01:42:48.021Z,12.43
2023-01-02T01:46:51.813Z,12.40
2023-01-02T01:50:53.812Z,12.37
2023-01-02T01:55:11.349Z,12.34
2023-01-02T01:59:13.618Z,12.31
2023-01-02T02:03:20.416Z,12.29
2023-01-02T02:07:22.067Z,12.23
2023-01-02T02:11:23.983Z,12.18
2023-01-02T02:15:37.119Z,12.18
2023-01-02T02:20:00.340Z,12.16
2023-01-02T02:24:19.379Z,12.16
2023-01-02T02:28:23.992Z,12.18
2023-01-02T02:32:54.437Z,12.18
2023-01-02T02:36:58.269Z,12.19
2023-01-02T02:41:17.804Z,12.18
2023-01-02T02:45:33.388Z,12.18
2023-01-02T02:49:43.545Z,12.19
2023-01-02T02:54:00.523Z,12.19
2023-01-02T02:58:02.305Z,12.19
2023-01-02T03:02:04.714Z,12.19
2023-01-02T03:06:09.536Z,12.16
2023-01-02T03:10:28.072Z,12.12
2023-01-02T03:14:37.663Z,12.11
2023-01-02T03:18:53.926Z,12.08
2023-01-02T03:23:00.675Z,12.12
2023-01-02T03:27:08.781Z,12.13
2023-01-02T03:31:17.141Z,12.13
2023-01-02T03:35:25.172Z,12.15
2023-01-02T03:39:30.469Z,12.15
2023-01-02T03:43:36.741Z,12.15
2023-01-02T03:47:59.895Z,12.16
2023-01-02T03:52:02.992Z,12.15
2023-01-02T03:56:10.672Z,12.16
2023-01-02T04:00:16.411Z,12.16
2023-01-02T04:04:26.333Z,12.15
2023-01-02T04:08:44.336Z,12.13
2023-01-02T04:12:51.167Z,12.08
2023-01-02T04:16:55.073Z,12.07
2023-01-02T04:21:05.308Z,12.08
2023-01-02T04:25:11.504Z,12.07
2023-01-02T04:29:13.313Z,12.05
2023-01-02T04:33:17.217Z,12.05
2023-01-02T04:37:34.069Z,12.03
2023-01-02T04:41:37.900Z,12.00
2023-01-02T04:45:39.411Z,11.97
2023-01-02T04:49:40.932Z,11.96
2023-01-02T04:53:42.475Z,11.93
2023-01-02T04:57:44.067Z,11.90
2023-01-02T05:01:45.686Z,11.87
2023-01-02T05:05:47.984Z,11.81
2023-01-02T05:09:49.544Z,11.81
2023-01-02T05:13:51.101Z,11.79
2023-01-02T05:17:52.721Z,11.77
2023-01-02T05:22:12.640Z,11.75
2023-01-02T05:26:15.042Z,11.72
2023-01-02T05:30:16.607Z,11.69
2023-01-02T05:34:18.128Z,11.69
2023-01-02T05:38:19.654Z,11.69
2023-01-02T05:42:21.202Z,11.64
2023-01-02T05:46:23.158Z,11.62
2023-01-02T05:50:24.765Z,11.59
2023-01-02T05:54:26.480Z,11.59
2023-01-02T05:58:31.676Z,11.62
2023-01-02T06:02:34.094Z,11.62
2023-01-02T06:06:38.803Z,11.59
2023-01-02T06:10:49.759Z,11.56
2023-01-02T06:14:51.277Z,11.53
2023-01-02T06:18:53.226Z,11.49
2023-01-02T06:22:55.432Z,11.46
2023-01-02T06:26:56.974Z,11.45
2023-01-02T06:31:03.188Z,11.42
2023-01-02T06:35:05.102Z,11.44
2023-01-02T06:39:06.602Z,11.42
2023-01-02T06:43:08.182Z,11.41
2023-01-02T06:47:09.835Z,11.38
2023-01-02T06:51:17.110Z,11.36
2023-01-02T06:55:18.663Z,11.33
2023-01-02T06:59:20.178Z,11.35
2023-01-02T07:03:21.851Z,11.35
2023-01-02T07:07:23.538Z,11.35
2023-01-02T07:11:25.544Z,11.31
2023-01-02T07:15:27.186Z,11.31
2023-01-02T07:19:28.785Z,11.31
2023-01-02T07:23:30.426Z,11.31
2023-01-02T07:27:32.673Z,11.33
2023-01-02T07:31:35.648Z,11.35
2023-01-02T07:35:37.348Z,11.35
2023-01-02T07:39:38.965Z,11.33
2023-01-02T07:43:40.496Z,11.30
2023-01-02T07:47:42.109Z,11.27
2023-01-02T07:51:43.725Z,11.24
2023-01-02T07:55:53.536Z,11.23
2023-01-02T07:59:55.680Z,11.26
2023-01-02T08:03:57.487Z,11.27
2023-01-02T08:07:59.118Z,11.30
2023-01-02T08:12:00.670Z,11.36
2023-01-02T08:16:14.277Z,11.39
2023-01-02T08:20:16.278Z,11.45
2023-01-02T08:24:17.944Z,11.48
2023-01-02T08:28:19.536Z,11.53
2023-01-02T08:32:22.493Z,11.57
2023-01-02T08:36:24.204Z,11.62
2023-01-02T08:40:26.038Z,11.66
2023-01-02T08:44:27.713Z,11.70
2023-01-02T08:48:29.365Z,11.78
2023-01-02T08:52:30.948Z,11.88
2023-01-02T08:56:33.371Z,12.00
2023-01-02T09:00:34.958Z,12.13
2023-01-02T09:04:36.490Z,12.26
2023-01-02T09:08:38.002Z,12.37
2023-01-02T09:12:39.603Z,12.44
2023-01-02T09:16:41.134Z,12.52
2023-01-02T09:20:42.699Z,12.62
2023-01-02T09:24:44.218Z,12.69
2023-01-02T09:28:46.173Z,12.76
2023-01-02T09:32:49.147Z,12.79
2023-01-02T09:36:50.773Z,12.87
2023-01-02T09:40:54.080Z,12.92
2023-01-02T09:45:07.978Z,12.98
2023-01-02T09:49:14.349Z,12.99
2023-01-02T09:53:16.538Z,12.99
2023-01-02T09:57:27.620Z,13.07
2023-01-02T10:01:47.895Z,13.16
2023-01-02T10:05:58.508Z,13.24
2023-01-02T10:10:10.365Z,13.41
2023-01-02T10:14:29.419Z,13.55
2023-01-02T10:18:41.417Z,13.63
2023-01-02T10:22:49.618Z,13.66
2023-01-02T10:26:53.527Z,13.72
2023-01-02T10:31:07.305Z,13.87
2023-01-02T10:35:09.492Z,14.01
2023-01-02T10:39:18.271Z,14.20
2023-01-02T10:43:20.006Z,14.42
2023-01-02T10:47:34.904Z,14.61
2023-01-02T10:51:39.185Z,14.83
2023-01-02T10:55:44.837Z,15.05
2023-01-02T10:59:46.453Z,15.27
2023-01-02T11:04:11.961Z,15.56
2023-01-02T11:08:17.049Z,15.74
2023-01-02T11:12:21.330Z,15.89
2023-01-02T11:16:27.281Z,15.99
2023-01-02T11:20:34.999Z,16.07
2023-01-02T11:25:00.847Z,16.08
2023-01-02T11:29:13.161Z,16.07
2023-01-02T11:33:14.664Z,16.03
2023-01-02T11:37:17.166Z,16.01
2023-01-02T11:41:49.115Z,16.01
2023-01-02T11:45:52.486Z,15.99
2023-01-02T11:49:54.306Z,15.95
2023-01-02T11:53:58.612Z,15.91
2023-01-02T11:58:12.072Z,15.86
2023-01-02T12:02:20.900Z,15.84
2023-01-02T12:06:30.283Z,15.85
2023-01-02T12:11:10.910Z,15.86
2023-01-02T12:15:55.338Z,15.76
2023-01-02T12:20:28.122Z,15.66
2023-01-02T12:25:08.552Z,15.53
2023-01-02T12:29:46.255Z,15.40
2023-01-02T12:34:07.570Z,15.25
2023-01-02T12:38:11.480Z,15.03
2023-01-02T12:42:45.766Z,14.86
2023-01-02T12:47:13.528Z,14.63
2023-01-02T12:51:21.067Z,14.42
2023-01-02T12:55:25.503Z,14.35
2023-01-02T12:59:57.195Z,14.26
2023-01-02T13:04:18.492Z,14.20
2023-01-02T13:08:29.343Z,14.13
2023-01-02T13:12:34.681Z,14.11
2023-01-02T13:16:38.626Z,14.20
2023-01-02T13:20:55.534Z,14.24
2023-01-02T13:24:58.425Z,14.30
2023-01-02T13:29:28.275Z,14.34
2023-01-02T13:33:38.872Z,14.35
2023-01-02T13:37:42.554Z,14.36
2023-01-02T13:42:14.673Z,14.35
2023-01-02T13:47:01.656Z,14.34
2023-01-02T13:50:58.668Z,14.34
2023-01-02T13:55:10.829Z,14.35
2023-01-02T13:59:42.084Z,14.34
2023-01-02T14:03:43.286Z,14.35
2023-01-02T14:07:47.640Z,14.29
2023-01-02T14:11:59.632Z,14.29
2023-01-02T14:16:20.281Z,14.27
2023-01-02T14:20:23.440Z,14.21
2023-01-02T14:24:38.827Z,14.17
2023-01-02T14:28:40.563Z,14.19
2023-01-02T14:32:44.311Z,14.21
2023-01-02T14:36:49.416Z,14.23
2023-01-02T14:40:52.140Z,14.24
2023-01-02T14:44:58.497Z,14.26
2023-01-02T14:49:24.818Z,14.27
2023-01-02T14:53:33.658Z,14.27
2023-01-02T14:57:38.968Z,14.27
2023-01-02T15:01:44.949Z,14.27
2023-01-02T15:05:53.139Z,14.23
2023-01-02T15:10:00.882Z,14.21
2023-01-02T15:14:05.093Z,14.17
2023-01-02T15:18:22.759Z,14.17
2023-01-02T15:22:29.231Z,14.16
2023-01-02T15:26:34.757Z,14.11
2023-01-02T15:30:38.891Z,14.11
2023-01-02T15:34:40.416Z,14.05
2023-01-02T15:38:43.669Z,14.01
2023-01-02T15:43:05.382Z,13.99
2023-01-02T15:47:09.027Z,13.93
2023-01-02T15:51:21.010Z,13.93
2023-01-02T15:55:42.708Z,13.88
2023-01-02T15:59:45.904Z,13.87
2023-01-02T16:04:02.126Z,13.84
2023-01-02T16:08:05.841Z,13.83
2023-01-02T16:12:20.203Z,13.55
2023-01-02T16:16:22.684Z,13.28
2023-01-02T16:20:26.567Z,13.16
2023-01-02T16:24:28.580Z,13.06
2023-01-02T16:28:35.330Z,12.98
2023-01-02T16:32:47.674Z,12.94
2023-01-02T16:36:49.370Z,12.81
2023-01-02T16:41:00.170Z,12.77
2023-01-02T16:45:05.654Z,12.77
2023-01-02T16:49:10.638Z,12.74
2023-01-02T16:53:18.276Z,12.74
2023-01-02T16:57:22.395Z,12.73
2023-01-02T17:01:24.403Z,12.73
2023-01-02T17:05:26.007Z,12.71
2023-01-02T17:09:27.648Z,12.67
2023-01-02T17:13:29.931Z,12.61
2023-01-02T17:17:31.600Z,12.56
2023-01-02T17:21:33.279Z,12.52
2023-01-02T17:25:34.957Z,12.49
2023-01-02T17:29:36.563Z,12.49
2023-01-02T17:33:38.085Z,12.44
2023-01-02T17:37:40.348Z,12.41
2023-01-02T17:41:42.348Z,12.38
2023-01-02T17:45:43.995Z,12.33
2023-01-02T17:49:45.706Z,12.34
2023-01-02T17:53:47.866Z,12.31
2023-01-02T17:57:49.534Z,12.25
2023-01-02T18:01:51.464Z,12.23
2023-01-02T18:05:53.409Z,12.22
2023-01-02T18:10:08.015Z,12.21
2023-01-02T18:14:18.799Z,12.12
2023-01-02T18:18:24.004Z,12.07
2023-01-02T18:22:29.903Z,12.03
2023-01-02T18:26:31.610Z,12.00
2023-01-02T18:30:33.276Z,11.96
2023-01-02T18:34:48.650Z,11.97
2023-01-02T18:39:07.204Z,11.93
2023-01-02T18:43:35.665Z,11.90
2023-01-02T18:47:37.638Z,11.88
2023-01-02T18:51:39.199Z,11.87
2023-01-02T18:55:40.803Z,11.93
2023-01-02T18:59:51.772Z,11.96
2023-01-02T19:04:00.174Z,11.96
2023-01-02T19:08:07.927Z,11.88
2023-01-02T19:12:34.190Z,11.85
2023-01-02T19:16:35.839Z,11.75
2023-01-02T19:20:37.421Z,11.72
2023-01-02T19:24:39.316Z,11.67
2023-01-02T19:28:52.382Z,11.63
2023-01-02T19:32:54.012Z,11.60
2023-01-02T19:37:10.634Z,11.57
2023-01-02T19:41:12.705Z,11.51
2023-01-02T19:45:22.689Z,11.41
2023-01-02T19:49:24.351Z,11.33
2023-01-02T19:53:26.308Z,11.31
2023-01-02T19:57:28.033Z,11.28
2023-01-02T20:01:29.704Z,11.31
2023-01-02T20:05:31.311Z,11.31
2023-01-02T20:09:32.879Z,11.35
2023-01-02T20:13:34.451Z,11.31
2023-01-02T20:17:37.928Z,11.30
2023-01-02T20:21:39.634Z,11.26
2023-01-02T20:25:41.199Z,11.17
2023-01-02T20:29:43.262Z,11.09
2023-01-02T20:33:45.432Z,11.06
2023-01-02T20:37:47.961Z,11.06
2023-01-02T20:41:49.628Z,11.09
2023-01-02T20:45:51.203Z,11.12
2023-01-02T20:49:52.830Z,11.16
2023-01-02T20:53:54.392Z,11.19
2023-01-02T20:57:55.985Z,11.21
2023-01-02T21:01:57.675Z,11.20
2023-01-02T21:05:59.380Z,11.17
2023-01-02T21:10:01.050Z,11.08
2023-01-02T21:14:03.030Z,11.02
2023-01-02T21:18:04.694Z,10.99
2023-01-02T21:22:06.235Z,10.95
2023-01-02T21:26:09.934Z,10.90
2023-01-02T21:30:11.941Z,10.83
2023-01-02T21:34:13.953Z,10.76
2023-01-02T21:38:16.820Z,10.65
2023-01-02T21:42:18.588Z,10.58
2023-01-02T21:46:20.219Z,10.51
2023-01-02T21:50:23.449Z,10.46
2023-01-02T21:54:25.025Z,10.42
2023-01-02T21:58:26.835Z,10.36
2023-01-02T22:02:36.777Z,10.32
2023-01-02T22:07:04.305Z,10.28
2023-01-02T22:11:25.291Z,10.24
2023-01-02T22:15:26.837Z,10.18
2023-01-02T22:19:29.181Z,10.14
2023-01-02T22:23:30.771Z,10.10
2023-01-02T22:27:32.339Z,10.07
2023-01-02T22:31:34.784Z,9.99
2023-01-02T22:35:36.384Z,9.96
2023-01-02T22:39:38.799Z,9.92
2023-01-02T22:43:42.818Z,9.86
2023-01-02T22:47:45.759Z,9.85
2023-01-02T22:52:06.494Z,9.85
2023-01-02T22:56:16.876Z,9.89
2023-01-02T23:00:22.313Z,9.93
2023-01-02T23:04:25.071Z,9.98
2023-01-02T23:08:26.779Z,9.99
2023-01-02T23:12:29.241Z,9.93
2023-01-02T23:16:54.335Z,9.92
2023-01-02T23:20:56.753Z,9.85
2023-01-02T23:25:00.581Z,9.75
2023-01-02T23:29:07.397Z,9.77
2023-01-02T23:33:09.559Z,9.67
2023-01-02T23:37:11.144Z,9.67
2023-01-02T23:41:12.839Z,9.62
2023-01-02T23:45:14.444Z,9.56
2023-01-02T23:49:16.399Z,9.52
2023-01-02T23:53:17.972Z,9.52
2023-01-02T23:57:19.764Z,9.50
